Time;durP1;ratioP1;P1;durP2;ratioP2;P2;SDS_P1;SDS_P2;PMS_P1;PMS_P2;Temp;Humidity;BMP_temperature;BMP_pressure;BME280_temperature;BME280_humidity;BME280_pressure;Samples;Min_cycle;Max_cycle;Signal;HPM_P1;HPM_P2
2022/01/13 00:00:00;;;;;;;11.32;7.47;;;19.30;41.70;;;;;;5072459;28;20025;-72
2022/01/13 00:02:31;;;;;;;13.77;7.57;;;19.30;41.70;;;;;;5066207;28;20079;-72
2022/01/13 00:04:57;;;;;;;13.20;7.28;;;19.30;41.70;;;;;;5061732;28;20029;-72
2022/01/13 00:07:22;;;;;;;11.25;6.68;;;19.30;41.70;;;;;;5072070;28;20037;-68
2022/01/13 00:09:48;;;;;;;12.30;7.30;;;19.30;41.70;;;;;;5041392;28;20044;-68
2022/01/13 00:12:17;;;;;;;11.25;7.20;;;19.30;41.70;;;;;;5061615;28;20040;-68
2022/01/13 00:25:14;;;;;;;10.82;6.68;;;19.20;41.80;;;;;;5067416;28;20052;-72
2022/01/13 00:27:45;;;;;;;10.07;6.53;;;19.20;41.80;;;;;;5072595;28;20037;-72
2022/01/13 00:30:16;;;;;;;10.65;6.88;;;19.20;41.80;;;;;;5070374;28;20028;-71
2022/01/13 00:32:42;;;;;;;10.88;7.22;;;19.10;41.80;;;;;;5069552;28;20041;-73
2022/01/13 00:35:09;;;;;;;9.85;6.18;;;19.10;41.80;;;;;;5060627;28;20056;-72
2022/01/13 00:37:36;;;;;;;9.90;7.07;;;19.10;41.80;;;;;;5064937;28;20025;-68
2022/01/13 00:40:02;;;;;;;11.93;7.60;;;19.10;41.80;;;;;;5030255;28;20024;-68
2022/01/13 00:42:28;;;;;;;11.40;6.45;;;19.10;41.90;;;;;;5068624;28;20025;-68
2022/01/13 00:44:54;;;;;;;10.75;7.22;;;19.10;41.90;;;;;;5073111;28;20036;-68
2022/01/13 00:47:20;;;;;;;10.93;7.10;;;19.00;41.80;;;;;;5072062;28;20399;-68
2022/01/13 00:49:46;;;;;;;10.25;6.50;;;19.00;41.80;;;;;;5063429;28;20032;-68
2022/01/13 00:52:11;;;;;;;10.95;7.18;;;19.00;41.90;;;;;;5057075;28;20565;-69
2022/01/13 00:54:37;;;;;;;11.10;7.13;;;19.00;41.80;;;;;;5063196;28;20039;-68
2022/01/13 00:57:03;;;;;;;11.25;7.03;;;19.00;41.80;;;;;;5063267;28;20029;-68
2022/01/13 00:59:29;;;;;;;11.68;7.22;;;19.00;41.80;;;;;;5064136;28;20016;-68
2022/01/13 01:01:55;;;;;;;10.80;6.88;;;19.00;41.70;;;;;;5060971;28;20402;-68
2022/01/13 01:04:23;;;;;;;11.45;7.53;;;18.90;41.70;;;;;;5053718;28;20407;-68
2022/01/13 01:06:50;;;;;;;11.13;6.97;;;19.00;41.80;;;;;;5073271;28;20059;-68
2022/01/13 01:09:22;;;;;;;11.00;6.65;;;18.90;42.60;;;;;;5072520;28;20038;-68
2022/01/13 01:11:50;;;;;;;9.55;6.70;;;18.90;41.60;;;;;;5070688;28;20476;-68
2022/01/13 01:14:17;;;;;;;10.88;6.63;;;18.80;41.60;;;;;;5073783;28;20032;-68
2022/01/13 01:16:43;;;;;;;10.02;6.85;;;18.90;41.60;;;;;;5073036;28;20047;-69
2022/01/13 01:19:11;;;;;;;9.13;6.22;;;18.80;41.60;;;;;;5062361;28;20468;-69
2022/01/13 01:26:52;;;;;;;10.02;6.57;;;18.80;41.50;;;;;;5065858;28;20040;-68
2022/01/13 01:31:50;;;;;;;10.75;6.55;;;18.70;41.50;;;;;;5065168;28;20048;-68
2022/01/13 01:36:54;;;;;;;9.82;6.40;;;18.70;41.50;;;;;;5056908;28;20068;-68
2022/01/13 01:39:20;;;;;;;9.80;6.45;;;18.60;41.40;;;;;;5053943;28;20047;-68
2022/01/13 01:41:48;;;;;;;11.68;7.20;;;18.60;41.40;;;;;;5072724;28;20341;-68
2022/01/13 01:44:20;;;;;;;10.68;6.68;;;18.70;41.40;;;;;;5069031;28;20086;-68
2022/01/13 01:46:46;;;;;;;9.88;6.43;;;18.60;41.40;;;;;;5068616;28;20025;-68
2022/01/13 01:49:19;;;;;;;9.82;6.78;;;18.60;41.40;;;;;;5066990;28;20059;-68
2022/01/13 01:51:49;;;;;;;10.80;6.45;;;18.60;41.40;;;;;;5064709;28;20585;-68
2022/01/13 01:54:15;;;;;;;9.68;6.47;;;18.50;41.30;;;;;;5068872;28;20172;-68
2022/01/13 01:56:43;;;;;;;10.10;6.50;;;18.50;41.30;;;;;;5072107;28;20101;-68
2022/01/13 01:59:12;;;;;;;11.40;6.85;;;18.50;41.30;;;;;;5070125;28;20031;-73
2022/01/13 02:01:39;;;;;;;11.65;6.80;;;18.50;41.30;;;;;;5067765;28;20069;-73
2022/01/13 02:04:05;;;;;;;10.70;6.82;;;18.50;41.30;;;;;;5071409;28;20074;-73
2022/01/13 02:06:31;;;;;;;11.13;6.72;;;18.50;41.30;;;;;;5073194;28;20037;-73
2022/01/13 02:08:56;;;;;;;11.73;7.05;;;18.50;41.30;;;;;;5072661;28;20033;-68
2022/01/13 02:11:25;;;;;;;11.48;6.95;;;18.50;41.30;;;;;;5069939;28;20177;-68
2022/01/13 02:13:54;;;;;;;10.38;6.20;;;18.40;41.30;;;;;;5039548;28;20395;-68
2022/01/13 02:19:01;;;;;;;10.15;6.68;;;18.40;41.30;;;;;;5063603;28;20037;-68
2022/01/13 02:21:27;;;;;;;9.80;6.28;;;18.40;41.30;;;;;;5052952;28;20021;-68
2022/01/13 02:23:54;;;;;;;10.73;6.30;;;18.40;41.30;;;;;;5063631;28;20449;-68
2022/01/13 02:26:21;;;;;;;10.10;6.50;;;18.40;41.30;;;;;;5068340;28;20036;-73
2022/01/13 02:28:47;;;;;;;11.02;7.15;;;18.30;41.20;;;;;;5071471;28;20035;-72
2022/01/13 02:31:13;;;;;;;11.00;6.43;;;18.30;41.20;;;;;;5071943;28;20071;-73
2022/01/13 02:33:40;;;;;;;10.25;6.65;;;18.30;41.20;;;;;;5057782;28;20068;-72
2022/01/13 02:36:08;;;;;;;10.93;6.68;;;18.30;41.20;;;;;;5052789;28;20074;-72
2022/01/13 02:38:34;;;;;;;11.45;6.95;;;18.30;41.20;;;;;;5070919;28;20425;-73
2022/01/13 02:41:00;;;;;;;11.82;6.90;;;18.30;41.20;;;;;;5055347;28;20029;-72
2022/01/13 02:43:30;;;;;;;10.70;6.57;;;18.20;41.20;;;;;;5067662;28;20036;-73
2022/01/13 02:48:31;;;;;;;10.38;6.15;;;18.20;41.20;;;;;;5072146;28;20104;-68
2022/01/13 02:50:59;;;;;;;11.43;6.80;;;18.20;41.20;;;;;;5053598;28;20087;-68
2022/01/13 02:53:26;;;;;;;10.45;6.32;;;18.20;41.20;;;;;;5068281;28;20025;-68
2022/01/13 02:56:01;;;;;;;10.63;6.18;;;18.20;41.20;;;;;;5065647;28;20033;-68
2022/01/13 02:58:27;;;;;;;10.15;6.25;;;18.20;41.30;;;;;;5067556;28;20383;-68
2022/01/13 03:00:53;;;;;;;9.18;6.07;;;18.10;41.20;;;;;;5054395;28;20024;-68
2022/01/13 03:03:19;;;;;;;10.75;6.70;;;18.10;41.20;;;;;;5071640;28;20037;-68
2022/01/13 03:05:45;;;;;;;10.55;6.45;;;18.10;41.20;;;;;;5049987;28;20426;-72
2022/01/13 03:08:11;;;;;;;8.93;5.65;;;18.10;41.20;;;;;;5071251;28;20032;-73
2022/01/13 03:10:36;;;;;;;9.32;6.25;;;18.10;42.20;;;;;;5059519;28;20067;-73
2022/01/13 03:13:04;;;;;;;11.05;6.38;;;18.10;41.20;;;;;;5072335;28;20033;-72
2022/01/13 03:15:29;;;;;;;9.40;6.22;;;18.10;41.20;;;;;;5075428;28;20020;-72
2022/01/13 03:17:55;;;;;;;10.15;6.35;;;18.00;41.20;;;;;;5074527;28;20050;-72
2022/01/13 03:20:20;;;;;;;9.07;5.88;;;18.00;41.20;;;;;;5059405;28;20025;-72
2022/01/13 03:22:46;;;;;;;9.20;5.88;;;18.00;41.20;;;;;;5065525;28;20056;-72
2022/01/13 03:25:14;;;;;;;9.90;6.20;;;18.00;41.20;;;;;;5064921;28;20025;-72
2022/01/13 03:27:41;;;;;;;10.18;6.07;;;18.00;41.20;;;;;;5073486;28;20078;-69
2022/01/13 03:30:08;;;;;;;9.50;5.80;;;18.00;41.20;;;;;;5070704;28;20048;-69
2022/01/13 03:32:38;;;;;;;10.15;6.00;;;18.00;41.20;;;;;;5073324;28;20387;-68
2022/01/13 03:35:05;;;;;;;9.93;5.78;;;17.90;41.20;;;;;;5067328;28;20451;-69
2022/01/13 03:37:31;;;;;;;9.52;5.97;;;17.90;41.20;;;;;;5072104;28;20386;-68
2022/01/13 03:39:58;;;;;;;9.13;5.88;;;17.90;41.20;;;;;;5063583;28;20534;-72
2022/01/13 03:42:24;;;;;;;9.48;5.93;;;17.90;42.20;;;;;;5072667;28;20024;-72
2022/01/13 03:44:50;;;;;;;9.57;5.90;;;17.90;41.20;;;;;;5070238;28;20376;-72
2022/01/13 03:47:16;;;;;;;9.55;5.95;;;17.90;41.20;;;;;;5073078;28;20061;-69
2022/01/13 03:49:42;;;;;;;10.18;6.25;;;17.80;41.20;;;;;;5059560;28;20021;-68
2022/01/13 03:52:23;;;;;;;9.73;5.90;;;17.80;42.10;;;;;;5072792;28;20048;-68
2022/01/13 03:55:25;;;;;;;9.55;6.05;;;17.80;41.20;;;;;;5065084;28;20098;-68
2022/01/13 03:58:25;;;;;;;9.90;5.97;;;17.80;41.10;;;;;;5053358;28;20020;-72
2022/01/13 04:01:30;;;;;;;10.23;6.20;;;17.80;41.20;;;;;;5072562;28;20039;-71
2022/01/13 04:03:55;;;;;;;9.25;5.80;;;17.80;41.30;;;;;;5064031;28;20039;-72
2022/01/13 04:06:21;;;;;;;8.48;5.47;;;17.70;41.40;;;;;;5064520;28;20058;-72
2022/01/13 04:08:48;;;;;;;9.23;5.88;;;17.70;41.30;;;;;;5056360;28;20082;-72
2022/01/13 04:11:22;;;;;;;9.38;5.75;;;17.70;41.40;;;;;;5074433;28;20458;-72
2022/01/13 04:14:00;;;;;;;8.77;5.55;;;17.70;41.30;;;;;;5074124;28;20024;-72
2022/01/13 04:16:36;;;;;;;9.75;6.07;;;17.70;41.30;;;;;;5073327;28;20440;-72
2022/01/13 04:19:05;;;;;;;9.95;5.97;;;17.70;41.40;;;;;;5075225;28;20021;-72
2022/01/13 04:21:35;;;;;;;9.95;6.38;;;17.70;41.40;;;;;;5074039;28;20032;-72
2022/01/13 04:24:03;;;;;;;8.82;6.03;;;17.60;41.30;;;;;;5046930;28;20025;-72
2022/01/13 04:26:34;;;;;;;8.50;5.30;;;17.60;41.30;;;;;;5066401;28;20029;-72
2022/01/13 04:29:49;;;;;;;8.50;5.53;;;17.60;41.30;;;;;;5073850;28;20375;-68
2022/01/13 04:31:50;;;;;;;8.43;5.22;;;17.60;41.40;;;;;;5055470;28;20151;-68
2022/01/13 04:34:16;;;;;;;9.07;5.25;;;17.60;42.30;;;;;;5072353;28;20031;-72
2022/01/13 04:36:42;;;;;;;9.20;5.28;;;17.60;41.30;;;;;;5057319;28;20020;-72
2022/01/13 04:39:09;;;;;;;8.88;5.25;;;17.60;41.40;;;;;;5055811;28;20422;-72
2022/01/13 04:41:39;;;;;;;9.43;5.65;;;17.60;41.30;;;;;;5070839;28;20055;-72
2022/01/13 04:44:08;;;;;;;9.43;5.40;;;17.60;41.40;;;;;;5055684;28;20040;-68
2022/01/13 04:46:34;;;;;;;7.50;5.10;;;17.50;41.30;;;;;;5054759;28;20040;-68
2022/01/13 04:49:02;;;;;;;9.10;5.50;;;17.50;41.30;;;;;;5070613;28;20071;-68
2022/01/13 04:51:28;;;;;;;9.20;5.30;;;17.50;41.30;;;;;;5054829;28;20087;-68
2022/01/13 04:53:54;;;;;;;9.35;5.88;;;17.50;41.30;;;;;;5073322;28;20391;-68
2022/01/13 04:56:40;;;;;;;9.50;5.68;;;17.50;41.30;;;;;;5055545;28;20020;-68
2022/01/13 04:59:07;;;;;;;8.70;5.47;;;17.50;41.30;;;;;;5071062;28;20467;-68
2022/01/13 05:01:33;;;;;;;8.77;5.50;;;17.50;41.40;;;;;;5073526;28;20031;-68
2022/01/13 05:03:59;;;;;;;9.07;5.40;;;17.50;41.40;;;;;;5047032;28;20029;-68
2022/01/13 05:06:25;;;;;;;8.32;5.30;;;17.50;41.40;;;;;;5073407;28;20024;-68
2022/01/13 05:08:50;;;;;;;9.25;5.22;;;17.40;41.40;;;;;;5072590;28;20037;-68
2022/01/13 05:11:18;;;;;;;8.82;5.22;;;17.40;41.40;;;;;;5072203;28;20403;-68
2022/01/13 05:13:44;;;;;;;8.95;5.38;;;17.40;41.30;;;;;;5071944;28;20109;-68
2022/01/13 05:16:24;;;;;;;8.27;5.22;;;17.40;41.40;;;;;;5059983;28;20104;-68
2022/01/13 05:19:28;;;;;;;8.13;5.32;;;17.40;41.40;;;;;;5062181;28;20036;-68
2022/01/13 05:24:10;;;;;;;8.98;5.47;;;17.40;41.40;;;;;;5073075;28;20078;-68
2022/01/13 05:26:36;;;;;;;9.32;5.20;;;17.30;41.40;;;;;;5051463;28;20020;-68
2022/01/13 05:29:02;;;;;;;9.02;5.80;;;17.30;41.40;;;;;;5071297;28;20048;-71
2022/01/13 05:31:28;;;;;;;8.88;5.60;;;17.30;41.40;;;;;;5072268;28;20052;-71
2022/01/13 05:33:53;;;;;;;7.82;5.05;;;17.30;41.40;;;;;;5060699;28;20037;-71
2022/01/13 05:36:19;;;;;;;10.30;5.65;;;17.30;41.40;;;;;;5066143;28;20542;-71
2022/01/13 05:38:45;;;;;;;9.07;5.22;;;17.30;41.40;;;;;;5039565;28;20032;-71
2022/01/13 05:41:11;;;;;;;9.20;5.25;;;17.30;41.40;;;;;;5071231;28;20090;-71
2022/01/13 05:43:37;;;;;;;8.95;5.22;;;17.30;41.40;;;;;;5064216;28;20390;-71
2022/01/13 05:46:03;;;;;;;8.38;4.65;;;17.30;41.40;;;;;;5069018;28;20032;-71
2022/01/13 05:48:31;;;;;;;9.98;5.78;;;17.30;41.40;;;;;;5070082;28;20033;-72
2022/01/13 05:50:57;;;;;;;7.43;4.68;;;17.30;41.40;;;;;;5066859;28;20528;-71
2022/01/13 05:53:22;;;;;;;8.43;4.95;;;17.20;41.40;;;;;;5050654;28;20041;-71
2022/01/13 05:55:48;;;;;;;8.23;5.10;;;17.20;41.40;;;;;;5067025;28;20098;-68
2022/01/13 05:58:14;;;;;;;8.52;5.32;;;17.20;41.40;;;;;;5069700;28;20093;-68
2022/01/13 06:00:40;;;;;;;9.43;5.78;;;17.20;41.50;;;;;;5072675;28;20476;-68
2022/01/13 06:03:05;;;;;;;8.90;5.38;;;17.20;41.40;;;;;;5049884;28;20458;-68
2022/01/13 06:05:32;;;;;;;8.15;4.88;;;17.20;41.40;;;;;;5067375;28;20060;-68
2022/01/13 06:07:58;;;;;;;8.18;5.13;;;17.20;41.40;;;;;;5060098;28;20036;-68
2022/01/13 06:10:24;;;;;;;7.80;4.93;;;17.20;41.50;;;;;;5054915;28;22049;-71
2022/01/13 06:12:51;;;;;;;9.10;5.38;;;17.20;41.50;;;;;;5053984;28;20035;-71
2022/01/13 06:15:19;;;;;;;8.27;5.03;;;17.20;41.50;;;;;;5069999;28;20020;-68
2022/01/13 06:17:48;;;;;;;7.75;4.85;;;17.20;41.50;;;;;;5065235;28;20044;-68
2022/01/13 06:20:14;;;;;;;7.63;4.65;;;17.10;41.40;;;;;;5066584;28;20574;-68
2022/01/13 06:22:41;;;;;;;8.80;5.13;;;17.10;41.40;;;;;;5056245;28;20031;-71
2022/01/13 06:25:08;;;;;;;8.90;5.38;;;17.10;41.50;;;;;;5072754;28;20021;-71
2022/01/13 06:27:34;;;;;;;8.15;5.30;;;17.10;41.50;;;;;;5071957;28;20043;-71
2022/01/13 06:30:00;;;;;;;7.68;4.82;;;17.10;41.50;;;;;;5063372;28;20476;-71
2022/01/13 06:32:26;;;;;;;7.63;5.03;;;17.10;41.50;;;;;;5070170;28;20048;-71
2022/01/13 06:34:52;;;;;;;7.97;5.10;;;17.10;41.50;;;;;;5055478;28;20033;-71
2022/01/13 06:37:19;;;;;;;8.50;5.00;;;17.10;41.50;;;;;;5065986;28;20037;-71
2022/01/13 06:39:45;;;;;;;8.38;5.13;;;17.10;41.50;;;;;;5061144;28;20031;-71
2022/01/13 06:42:12;;;;;;;7.72;4.80;;;17.00;41.50;;;;;;5060772;28;20107;-71
2022/01/13 06:44:38;;;;;;;8.82;4.93;;;17.00;41.50;;;;;;5056245;28;20056;-71
2022/01/13 06:47:05;;;;;;;8.10;4.72;;;17.00;41.50;;;;;;5068247;28;20098;-71
2022/01/13 06:49:30;;;;;;;8.02;4.88;;;17.00;41.60;;;;;;5070830;28;20115;-71
2022/01/13 06:51:57;;;;;;;8.88;5.82;;;17.00;41.50;;;;;;5074689;28;20040;-71
2022/01/13 06:54:23;;;;;;;8.05;4.90;;;17.00;41.60;;;;;;5073398;28;20533;-71
2022/01/13 06:56:50;;;;;;;9.05;5.22;;;17.00;41.50;;;;;;5075403;28;20025;-71
2022/01/13 06:59:16;;;;;;;7.50;4.88;;;17.00;41.50;;;;;;5056848;28;20029;-71
2022/01/13 07:01:42;;;;;;;8.13;4.95;;;17.00;41.50;;;;;;5049747;28;20021;-68
2022/01/13 07:04:09;;;;;;;8.43;4.80;;;17.00;41.50;;;;;;5064068;28;20025;-68
2022/01/13 07:06:36;;;;;;;7.88;4.78;;;17.00;41.60;;;;;;5074181;28;20375;-68
2022/01/13 07:09:09;;;;;;;7.70;4.75;;;17.00;41.60;;;;;;5056249;28;20488;-71
2022/01/13 07:11:35;;;;;;;7.50;4.95;;;16.90;41.50;;;;;;5064141;28;20039;-71
2022/01/13 07:14:00;;;;;;;7.40;4.78;;;16.90;41.60;;;;;;5076106;28;20029;-71
2022/01/13 07:16:26;;;;;;;8.60;5.07;;;16.90;41.60;;;;;;5073602;28;20040;-71
2022/01/13 07:18:52;;;;;;;8.38;4.78;;;16.90;41.60;;;;;;5061038;28;20060;-71
2022/01/13 07:21:20;;;;;;;7.30;4.72;;;16.90;41.60;;;;;;5068106;28;20052;-71
2022/01/13 07:23:46;;;;;;;7.78;4.38;;;16.90;41.60;;;;;;5072313;28;20070;-71
2022/01/13 07:26:12;;;;;;;7.10;4.63;;;16.90;41.60;;;;;;5073483;28;20062;-71
2022/01/13 07:28:37;;;;;;;8.43;4.85;;;16.90;41.70;;;;;;5069014;28;20086;-71
2022/01/13 07:31:03;;;;;;;7.70;5.13;;;16.80;41.60;;;;;;5045259;28;20148;-71
2022/01/13 07:33:28;;;;;;;8.20;4.85;;;16.80;41.60;;;;;;5074791;28;20032;-71
2022/01/13 07:35:55;;;;;;;7.90;4.80;;;16.80;41.60;;;;;;5065597;28;20171;-68
2022/01/13 07:38:21;;;;;;;8.77;4.90;;;16.80;41.60;;;;;;5065153;28;20410;-68
2022/01/13 07:40:47;;;;;;;7.80;5.25;;;16.80;41.60;;;;;;5073223;28;20017;-68
2022/01/13 07:43:13;;;;;;;7.43;5.00;;;16.80;41.60;;;;;;5072865;28;20071;-68
2022/01/13 07:45:38;;;;;;;14.90;7.88;;;16.80;41.60;;;;;;5072764;28;20044;-68
2022/01/13 07:48:05;;;;;;;17.20;9.35;;;16.60;40.50;;;;;;5071726;28;20032;-69
2022/01/13 07:50:31;;;;;;;17.98;8.32;;;16.00;40.90;;;;;;5065748;28;20020;-69
2022/01/13 07:52:56;;;;;;;15.52;7.88;;;15.40;42.00;;;;;;5071045;28;20077;-70
2022/01/13 07:55:22;;;;;;;17.55;8.40;;;15.00;43.00;;;;;;5047854;28;20025;-68
2022/01/13 07:57:48;;;;;;;19.10;8.23;;;14.70;43.70;;;;;;5074201;28;20029;-67
2022/01/13 08:00:14;;;;;;;14.57;7.30;;;14.40;44.00;;;;;;5071472;28;20534;-73
2022/01/13 08:02:40;;;;;;;16.73;7.18;;;14.30;45.00;;;;;;5074297;28;20050;-69
2022/01/13 08:05:07;;;;;;;16.20;7.80;;;14.10;45.20;;;;;;5069462;28;20031;-69
2022/01/13 08:07:33;;;;;;;17.83;7.90;;;13.90;45.90;;;;;;5074597;28;20470;-69
2022/01/13 08:09:58;;;;;;;15.60;7.30;;;13.80;46.00;;;;;;5064878;28;20103;-68
2022/01/13 08:12:24;;;;;;;14.45;7.00;;;13.80;46.30;;;;;;5063358;28;20078;-67
2022/01/13 08:14:51;;;;;;;13.25;6.55;;;13.80;46.80;;;;;;5064555;28;20064;-67
2022/01/13 08:20:01;;;;;;;15.48;6.57;;;13.90;46.80;;;;;;5074072;28;20089;-72
2022/01/13 08:22:26;;;;;;;14.82;6.53;;;13.90;46.90;;;;;;5064326;28;20484;-67
2022/01/13 08:24:52;;;;;;;13.27;6.85;;;13.90;47.10;;;;;;5046219;28;20041;-70
2022/01/13 08:27:18;;;;;;;10.55;5.32;;;14.00;47.30;;;;;;5065035;28;20124;-68
2022/01/13 08:29:43;;;;;;;10.25;4.95;;;14.10;47.80;;;;;;5026507;28;20032;-70
2022/01/13 08:32:09;;;;;;;12.32;5.35;;;14.50;48.10;;;;;;5064341;28;20045;-70
2022/01/13 08:34:34;;;;;;;10.98;5.05;;;14.90;47.80;;;;;;5053791;28;20044;-71
2022/01/13 08:37:00;;;;;;;11.52;5.30;;;15.20;47.20;;;;;;5039434;28;20029;-71
2022/01/13 08:39:26;;;;;;;11.95;5.05;;;15.50;46.90;;;;;;5069643;28;20082;-72
2022/01/13 08:41:52;;;;;;;12.35;5.50;;;15.70;46.70;;;;;;5053716;28;20020;-70
2022/01/13 08:44:17;;;;;;;11.82;5.28;;;15.90;46.10;;;;;;5053651;28;20071;-70
2022/01/13 08:46:43;;;;;;;13.05;5.53;;;16.00;45.90;;;;;;5056299;28;20479;-70
2022/01/13 08:49:09;;;;;;;11.73;5.07;;;16.20;45.60;;;;;;5059861;28;20098;-71
2022/01/13 08:51:35;;;;;;;13.50;5.53;;;16.30;45.30;;;;;;5069634;28;20025;-70
2022/01/13 08:54:01;;;;;;;13.52;5.70;;;16.50;45.40;;;;;;5060536;28;20120;-71
2022/01/13 08:56:27;;;;;;;9.95;5.30;;;16.50;45.30;;;;;;5053430;28;20112;-70
2022/01/13 08:58:52;;;;;;;9.75;5.07;;;16.60;45.20;;;;;;5035181;28;20057;-70
2022/01/13 09:01:18;;;;;;;10.38;5.00;;;16.70;44.90;;;;;;5062525;28;20078;-71
2022/01/13 09:03:44;;;;;;;10.32;5.10;;;16.90;44.80;;;;;;5025475;28;20409;-70
2022/01/13 09:06:09;;;;;;;13.25;5.47;;;17.00;45.50;;;;;;5053358;28;20387;-70
2022/01/13 09:08:35;;;;;;;9.10;4.70;;;17.10;44.20;;;;;;5063104;28;20045;-71
2022/01/13 09:11:01;;;;;;;10.00;4.90;;;17.30;44.00;;;;;;5063893;28;20028;-71
2022/01/13 09:13:27;;;;;;;8.32;4.55;;;17.40;43.80;;;;;;5055092;28;20039;-72
2022/01/13 09:16:01;;;;;;;8.38;4.20;;;17.50;43.50;;;;;;5073142;28;20037;-71
2022/01/13 09:18:48;;;;;;;9.55;4.75;;;17.70;43.30;;;;;;5072188;28;20024;-71
2022/01/13 09:21:15;;;;;;;8.38;4.35;;;17.80;43.00;;;;;;5047644;28;20387;-72
2022/01/13 09:23:41;;;;;;;6.75;3.70;;;17.90;42.70;;;;;;5055371;28;20021;-71
2022/01/13 09:26:07;;;;;;;10.82;4.07;;;18.00;42.50;;;;;;5055040;28;20029;-72
2022/01/13 09:28:34;;;;;;;9.02;4.30;;;18.10;42.30;;;;;;5072523;28;20364;-71
2022/01/13 09:31:00;;;;;;;8.05;4.20;;;18.30;42.10;;;;;;5054613;28;20131;-71
2022/01/13 09:33:26;;;;;;;6.97;3.88;;;18.40;41.90;;;;;;5069876;28;20602;-72
2022/01/13 09:35:51;;;;;;;12.27;4.53;;;18.40;41.70;;;;;;5072694;28;20063;-71
2022/01/13 09:38:17;;;;;;;8.50;3.92;;;18.60;41.50;;;;;;5071497;28;20077;-71
2022/01/13 09:40:45;;;;;;;6.57;3.30;;;18.60;41.20;;;;;;5070766;28;20111;-71
2022/01/13 09:43:12;;;;;;;6.85;4.07;;;18.80;42.10;;;;;;5052778;28;20423;-71
2022/01/13 09:45:39;;;;;;;7.07;3.90;;;18.90;40.90;;;;;;5052483;28;20017;-72
2022/01/13 09:48:05;;;;;;;6.28;3.50;;;19.00;40.70;;;;;;5059234;28;20047;-71
2022/01/13 09:50:32;;;;;;;5.60;3.55;;;19.00;40.40;;;;;;5052571;28;20028;-72
2022/01/13 09:52:57;;;;;;;6.72;3.47;;;19.10;41.20;;;;;;5072509;28;20056;-71
2022/01/13 09:55:24;;;;;;;6.00;3.78;;;19.20;40.10;;;;;;5071723;28;20446;-71
2022/01/13 09:57:51;;;;;;;4.45;3.10;;;19.30;39.90;;;;;;5072558;28;20763;-70
2022/01/13 10:00:21;;;;;;;6.28;3.70;;;19.40;39.80;;;;;;5058768;28;20036;-70
2022/01/13 10:02:47;;;;;;;6.10;3.67;;;19.50;39.60;;;;;;5072107;28;20522;-70
2022/01/13 10:05:17;;;;;;;6.25;3.70;;;19.60;39.50;;;;;;5055525;28;20113;-70
2022/01/13 10:07:43;;;;;;;5.93;3.65;;;19.60;39.30;;;;;;5052399;28;20384;-70
2022/01/13 10:10:15;;;;;;;5.03;3.10;;;19.70;39.10;;;;;;5062483;28;20108;-72
2022/01/13 10:12:45;;;;;;;4.93;3.00;;;19.80;39.00;;;;;;5058933;28;20040;-72
2022/01/13 10:17:58;;;;;;;5.50;3.20;;;19.90;38.80;;;;;;5072109;28;20032;-71
2022/01/13 10:20:25;;;;;;;4.82;3.30;;;20.00;38.70;;;;;;5052254;28;20387;-71
2022/01/13 10:22:51;;;;;;;4.80;3.10;;;20.10;38.60;;;;;;5076110;28;20037;-70
2022/01/13 10:25:46;;;;;;;4.38;2.97;;;20.10;38.40;;;;;;5050852;28;20545;-71
2022/01/13 10:28:16;;;;;;;5.55;3.28;;;20.20;38.00;;;;;;5070468;28;20091;-71
2022/01/13 10:30:44;;;;;;;5.72;3.30;;;20.30;38.10;;;;;;5056313;28;20049;-71
2022/01/13 10:33:25;;;;;;;5.22;3.28;;;20.40;38.00;;;;;;5068860;28;20025;-69
2022/01/13 10:35:54;;;;;;;5.95;3.35;;;20.40;37.70;;;;;;5062025;28;20108;-70
2022/01/13 10:38:21;;;;;;;6.45;3.42;;;20.50;37.90;;;;;;5040115;28;20013;-69
2022/01/13 10:40:48;;;;;;;4.95;3.50;;;20.50;38.90;;;;;;5072453;28;20021;-72
2022/01/13 10:43:22;;;;;;;5.32;3.22;;;20.50;37.90;;;;;;5076770;28;20111;-72
2022/01/13 10:45:49;;;;;;;5.68;3.80;;;20.50;37.90;;;;;;5062962;28;20051;-69
2022/01/13 10:48:19;;;;;;;6.72;3.60;;;20.40;38.20;;;;;;5075797;28;20025;-69
2022/01/13 10:50:46;;;;;;;7.53;4.32;;;20.50;38.00;;;;;;5065297;28;20021;-71
2022/01/13 10:53:19;;;;;;;5.45;3.70;;;20.50;37.80;;;;;;5081667;28;20464;-70
2022/01/13 10:55:54;;;;;;;;;;;20.50;37.60;;;;;;5082934;28;20070;-69
2022/01/13 10:58:26;;;;;;;6.70;3.47;;;20.50;37.60;;;;;;5082268;28;20275;-69
2022/01/13 11:00:53;;;;;;;5.45;3.20;;;20.50;37.90;;;;;;5081601;28;20025;-71
2022/01/13 11:03:22;;;;;;;7.38;3.50;;;20.60;38.80;;;;;;5050684;28;20097;-70
2022/01/13 11:05:57;;;;;;;5.70;3.22;;;20.60;37.70;;;;;;5060566;28;20082;-74
2022/01/13 11:08:40;;;;;;;7.03;3.95;;;20.70;37.70;;;;;;5060389;28;20048;-76
2022/01/13 11:11:06;;;;;;;8.13;3.67;;;20.80;37.50;;;;;;5058249;28;20029;-73
2022/01/13 11:13:38;;;;;;;7.35;4.13;;;20.80;37.60;;;;;;5057992;28;20029;-72
2022/01/13 11:16:05;;;;;;;;;;;20.90;37.60;;;;;;5061534;28;20033;-74
2022/01/13 11:18:33;;;;;;;5.13;3.50;;;20.90;37.30;;;;;;5078663;28;19955;-72
2022/01/13 11:21:02;;;;;;;5.10;3.67;;;20.90;37.50;;;;;;5069850;28;20021;-71
2022/01/13 11:23:28;;;;;;;4.88;3.53;;;20.90;37.30;;;;;;5074153;28;20095;-70
2022/01/13 11:25:56;;;;;;;5.03;3.55;;;21.00;37.30;;;;;;5060232;28;20419;-70
2022/01/13 11:28:23;;;;;;;6.15;3.60;;;21.00;37.10;;;;;;5042673;28;20543;-70
2022/01/13 11:30:52;;;;;;;5.60;3.70;;;21.10;37.10;;;;;;5073656;28;20447;-69
2022/01/13 11:33:22;;;;;;;6.75;3.67;;;21.10;37.10;;;;;;5040060;28;20029;-69
2022/01/13 11:35:55;;;;;;;6.05;3.60;;;21.20;37.10;;;;;;5061861;28;20104;-69
2022/01/13 11:38:23;;;;;;;4.80;3.30;;;21.20;37.00;;;;;;5079607;28;20017;-69
2022/01/13 11:40:52;;;;;;;5.30;3.28;;;21.30;36.90;;;;;;5081894;28;20024;-69
2022/01/13 11:43:46;;;;;;;5.75;3.45;;;21.40;36.90;;;;;;5081963;28;20558;-69
2022/01/13 11:46:21;;;;;;;5.95;3.40;;;21.40;36.70;;;;;;5081087;28;20033;-69
2022/01/13 11:49:24;;;;;;;4.25;2.95;;;21.40;36.90;;;;;;5055051;28;20021;-69
2022/01/13 11:52:54;;;;;;;5.82;3.88;;;21.40;36.60;;;;;;5069808;28;20029;-69
2022/01/13 11:54:49;;;;;;;4.97;3.38;;;21.40;36.70;;;;;;5063378;28;20037;-69
2022/01/13 11:57:18;;;;;;;6.40;3.72;;;21.50;36.70;;;;;;5062176;28;20035;-69
2022/01/13 12:00:06;;;;;;;5.70;3.83;;;21.50;36.50;;;;;;5063738;28;20035;-71
2022/01/13 12:02:33;;;;;;;6.07;4.00;;;21.50;36.30;;;;;;5067062;28;20028;-70
2022/01/13 12:05:03;;;;;;;5.22;3.55;;;21.50;36.60;;;;;;5046167;28;20052;-69
2022/01/13 12:07:39;;;;;;;7.70;3.72;;;21.50;36.50;;;;;;5077517;28;20020;-70
2022/01/13 12:10:06;;;;;;;7.18;4.25;;;21.50;36.10;;;;;;5077020;28;20024;-72
2022/01/13 12:12:34;;;;;;;6.45;3.67;;;21.60;36.20;;;;;;5067001;28;20518;-72
2022/01/13 12:15:15;;;;;;;7.72;4.20;;;21.60;36.20;;;;;;5059452;28;20077;-72
2022/01/13 12:18:04;;;;;;;6.35;3.50;;;21.60;36.20;;;;;;5077542;28;20104;-71
2022/01/13 12:20:47;;;;;;;6.97;3.58;;;21.60;36.30;;;;;;5070289;28;20032;-71
2022/01/13 12:23:45;;;;;;;10.50;3.65;;;21.60;36.60;;;;;;5077448;28;20448;-72
2022/01/13 12:26:33;;;;;;;5.28;3.50;;;21.60;36.60;;;;;;5056465;28;20040;-73
2022/01/13 12:29:18;;;;;;;5.13;3.70;;;21.70;36.60;;;;;;5050782;28;20041;-71
2022/01/13 12:31:58;;;;;;;6.38;3.42;;;21.70;36.70;;;;;;5080431;28;20077;-72
2022/01/13 12:34:33;;;;;;;6.38;3.85;;;21.70;37.00;;;;;;5080751;28;20032;-72
2022/01/13 12:37:26;;;;;;;5.97;3.80;;;21.70;37.00;;;;;;5063013;28;20424;-70
2022/01/13 12:40:03;;;;;;;5.25;3.80;;;21.70;37.00;;;;;;5077745;28;20036;-69
2022/01/13 12:43:06;;;;;;;6.22;3.42;;;21.70;37.10;;;;;;5080732;28;20021;-71
2022/01/13 12:45:32;;;;;;;6.05;3.90;;;21.80;37.10;;;;;;5056404;28;20036;-71
2022/01/13 12:48:07;;;;;;;5.75;4.10;;;21.70;37.40;;;;;;5079656;28;20108;-71
2022/01/13 12:50:41;;;;;;;6.05;3.60;;;21.80;37.80;;;;;;5060016;28;20029;-70
2022/01/13 12:53:17;;;;;;;6.65;3.75;;;21.80;37.80;;;;;;5071690;28;20020;-69
2022/01/13 12:55:55;;;;;;;5.30;3.67;;;21.80;38.00;;;;;;5078333;28;20082;-70
2022/01/13 12:58:24;;;;;;;5.15;3.50;;;21.80;37.90;;;;;;5064039;28;20017;-70
2022/01/13 13:00:50;;;;;;;6.15;3.92;;;21.70;37.80;;;;;;5054186;28;20029;-71
2022/01/13 13:03:18;;;;;;;5.43;3.45;;;21.70;37.80;;;;;;5072039;28;20486;-70
2022/01/13 13:05:47;;;;;;;6.00;3.80;;;21.80;37.80;;;;;;5074271;28;20464;-70
2022/01/13 13:08:17;;;;;;;6.20;3.90;;;21.70;37.80;;;;;;5073791;28;20020;-70
2022/01/13 13:10:49;;;;;;;5.90;4.00;;;21.70;37.80;;;;;;5074331;28;20070;-70
2022/01/13 13:13:17;;;;;;;4.93;3.72;;;21.70;37.70;;;;;;5057880;28;20019;-70
2022/01/13 13:15:51;;;;;;;7.85;4.32;;;21.70;37.70;;;;;;5053934;28;20030;-69
2022/01/13 13:18:19;;;;;;;5.97;3.78;;;21.70;37.30;;;;;;5055085;28;20469;-71
2022/01/13 13:20:48;;;;;;;5.97;3.85;;;21.60;37.40;;;;;;5073062;28;20103;-71
2022/01/13 13:23:15;;;;;;;6.65;4.30;;;21.60;37.50;;;;;;5069281;28;20023;-71
2022/01/13 13:25:44;;;;;;;5.90;3.85;;;21.60;37.50;;;;;;5070830;28;20016;-71